sensor_id;sensor_type;location;lat;lon;timestamp;P1;durP1;ratioP1;P2;durP2;ratioP2
6205;SDS011;3136;48.788;9.772;2023-02-22T00:00:19;19.03;;;10.50;;
6205;SDS011;3136;48.788;9.772;2023-02-22T00:03:05;22.00;;;10.20;;
6205;SDS011;3136;48.788;9.772;2023-02-22T00:05:31;21.80;;;10.77;;
6205;SDS011;3136;48.788;9.772;2023-02-22T00:07:57;19.37;;;10.33;;
6205;SDS011;3136;48.788;9.772;2023-02-22T00:10:25;19.27;;;10.90;;
6205;SDS011;3136;48.788;9.772;2023-02-22T00:12:51;18.33;;;9.97;;
6205;SDS011;3136;48.788;9.772;2023-02-22T00:15:19;20.43;;;10.50;;
6205;SDS011;3136;48.788;9.772;2023-02-22T00:17:47;19.57;;;10.47;;
6205;SDS011;3136;48.788;9.772;2023-02-22T00:20:13;20.83;;;11.40;;
6205;SDS011;3136;48.788;9.772;2023-02-22T00:22:44;20.87;;;10.40;;
6205;SDS011;3136;48.788;9.772;2023-02-22T00:25:11;19.80;;;11.37;;
6205;SDS011;3136;48.788;9.772;2023-02-22T00:27:42;19.17;;;10.63;;
6205;SDS011;3136;48.788;9.772;2023-02-22T00:30:09;20.77;;;10.60;;
6205;SDS011;3136;48.788;9.772;2023-02-22T00:32:43;24.00;;;10.97;;
6205;SDS011;3136;48.788;9.772;2023-02-22T00:35:13;19.07;;;10.73;;
6205;SDS011;3136;48.788;9.772;2023-02-22T00:37:40;23.20;;;10.83;;
6205;SDS011;3136;48.788;9.772;2023-02-22T00:40:07;20.17;;;10.67;;
6205;SDS011;3136;48.788;9.772;2023-02-22T00:42:34;19.13;;;10.80;;
6205;SDS011;3136;48.788;9.772;2023-02-22T00:44:59;17.10;;;10.27;;
6205;SDS011;3136;48.788;9.772;2023-02-22T00:47:25;19.10;;;10.63;;
6205;SDS011;3136;48.788;9.772;2023-02-22T00:49:51;18.40;;;10.70;;
6205;SDS011;3136;48.788;9.772;2023-02-22T00:52:17;17.57;;;10.77;;
6205;SDS011;3136;48.788;9.772;2023-02-22T00:54:42;22.87;;;11.07;;
6205;SDS011;3136;48.788;9.772;2023-02-22T00:57:08;26.97;;;11.73;;
6205;SDS011;3136;48.788;9.772;2023-02-22T00:59:33;20.40;;;10.40;;
6205;SDS011;3136;48.788;9.772;2023-02-22T01:01:59;19.53;;;11.43;;
6205;SDS011;3136;48.788;9.772;2023-02-22T01:04:24;23.40;;;11.53;;
6205;SDS011;3136;48.788;9.772;2023-02-22T01:06:50;21.43;;;12.37;;
6205;SDS011;3136;48.788;9.772;2023-02-22T01:09:16;22.03;;;11.17;;
6205;SDS011;3136;48.788;9.772;2023-02-22T01:11:42;21.30;;;11.03;;
6205;SDS011;3136;48.788;9.772;2023-02-22T01:14:07;20.10;;;10.40;;
6205;SDS011;3136;48.788;9.772;2023-02-22T01:16:34;22.40;;;11.33;;
6205;SDS011;3136;48.788;9.772;2023-02-22T01:19:00;23.23;;;11.40;;
6205;SDS011;3136;48.788;9.772;2023-02-22T01:21:25;23.30;;;11.43;;
6205;SDS011;3136;48.788;9.772;2023-02-22T01:23:51;21.27;;;10.97;;
6205;SDS011;3136;48.788;9.772;2023-02-22T01:26:16;20.20;;;11.07;;
6205;SDS011;3136;48.788;9.772;2023-02-22T01:28:42;24.50;;;11.33;;
6205;SDS011;3136;48.788;9.772;2023-02-22T01:31:08;20.90;;;10.73;;
6205;SDS011;3136;48.788;9.772;2023-02-22T01:33:34;20.00;;;10.80;;
6205;SDS011;3136;48.788;9.772;2023-02-22T01:36:00;18.70;;;10.93;;
6205;SDS011;3136;48.788;9.772;2023-02-22T01:38:25;24.63;;;10.93;;
6205;SDS011;3136;48.788;9.772;2023-02-22T01:40:51;22.67;;;10.90;;
6205;SDS011;3136;48.788;9.772;2023-02-22T01:48:27;19.80;;;10.67;;
6205;SDS011;3136;48.788;9.772;2023-02-22T01:51:07;20.77;;;11.37;;
6205;SDS011;3136;48.788;9.772;2023-02-22T01:53:40;19.50;;;10.87;;
6205;SDS011;3136;48.788;9.772;2023-02-22T01:56:09;21.67;;;10.93;;
6205;SDS011;3136;48.788;9.772;2023-02-22T01:58:37;17.90;;;10.93;;
6205;SDS011;3136;48.788;9.772;2023-02-22T02:01:06;23.07;;;12.60;;
6205;SDS011;3136;48.788;9.772;2023-02-22T02:03:34;25.10;;;10.73;;
6205;SDS011;3136;48.788;9.772;2023-02-22T02:06:02;19.10;;;11.43;;
6205;SDS011;3136;48.788;9.772;2023-02-22T02:08:31;20.03;;;11.03;;
6205;SDS011;3136;48.788;9.772;2023-02-22T02:11:04;22.07;;;11.17;;
6205;SDS011;3136;48.788;9.772;2023-02-22T02:13:31;19.47;;;10.70;;
6205;SDS011;3136;48.788;9.772;2023-02-22T02:15:57;18.07;;;11.03;;
6205;SDS011;3136;48.788;9.772;2023-02-22T02:18:23;19.80;;;10.93;;
6205;SDS011;3136;48.788;9.772;2023-02-22T02:21:09;18.70;;;10.63;;
6205;SDS011;3136;48.788;9.772;2023-02-22T02:34:57;19.87;;;11.23;;
6205;SDS011;3136;48.788;9.772;2023-02-22T02:37:51;24.90;;;12.57;;
6205;SDS011;3136;48.788;9.772;2023-02-22T02:48:22;22.90;;;10.57;;
6205;SDS011;3136;48.788;9.772;2023-02-22T02:50:51;20.83;;;11.07;;
6205;SDS011;3136;48.788;9.772;2023-02-22T02:53:21;23.43;;;11.70;;
6205;SDS011;3136;48.788;9.772;2023-02-22T02:55:51;15.83;;;10.77;;
6205;SDS011;3136;48.788;9.772;2023-02-22T02:58:18;22.93;;;11.40;;
6205;SDS011;3136;48.788;9.772;2023-02-22T03:00:45;17.07;;;10.73;;
6205;SDS011;3136;48.788;9.772;2023-02-22T03:16:29;21.60;;;11.20;;
6205;SDS011;3136;48.788;9.772;2023-02-22T03:24:47;19.30;;;9.83;;
6205;SDS011;3136;48.788;9.772;2023-02-22T03:27:30;17.73;;;11.00;;
6205;SDS011;3136;48.788;9.772;2023-02-22T03:30:00;18.53;;;10.50;;
6205;SDS011;3136;48.788;9.772;2023-02-22T03:32:34;19.07;;;10.93;;
6205;SDS011;3136;48.788;9.772;2023-02-22T03:35:05;18.60;;;10.50;;
6205;SDS011;3136;48.788;9.772;2023-02-22T03:37:33;17.00;;;10.07;;
6205;SDS011;3136;48.788;9.772;2023-02-22T03:40:02;19.37;;;10.33;;
6205;SDS011;3136;48.788;9.772;2023-02-22T03:42:38;17.40;;;10.00;;
6205;SDS011;3136;48.788;9.772;2023-02-22T03:45:07;18.47;;;10.37;;
6205;SDS011;3136;48.788;9.772;2023-02-22T03:47:36;15.93;;;10.27;;
6205;SDS011;3136;48.788;9.772;2023-02-22T03:52:42;18.10;;;10.50;;
6205;SDS011;3136;48.788;9.772;2023-02-22T03:55:09;20.07;;;10.53;;
6205;SDS011;3136;48.788;9.772;2023-02-22T03:57:37;17.60;;;9.80;;
6205;SDS011;3136;48.788;9.772;2023-02-22T04:00:06;18.97;;;10.43;;
6205;SDS011;3136;48.788;9.772;2023-02-22T04:02:34;17.13;;;10.33;;
6205;SDS011;3136;48.788;9.772;2023-02-22T04:05:00;18.17;;;11.10;;
6205;SDS011;3136;48.788;9.772;2023-02-22T04:07:26;19.90;;;11.07;;
6205;SDS011;3136;48.788;9.772;2023-02-22T04:09:51;21.57;;;10.90;;
6205;SDS011;3136;48.788;9.772;2023-02-22T04:12:17;20.90;;;11.03;;
6205;SDS011;3136;48.788;9.772;2023-02-22T04:14:42;20.30;;;10.43;;
6205;SDS011;3136;48.788;9.772;2023-02-22T04:17:08;17.97;;;10.43;;
6205;SDS011;3136;48.788;9.772;2023-02-22T04:19:34;15.57;;;9.60;;
6205;SDS011;3136;48.788;9.772;2023-02-22T04:21:59;17.77;;;10.47;;
6205;SDS011;3136;48.788;9.772;2023-02-22T04:24:25;17.00;;;10.07;;
6205;SDS011;3136;48.788;9.772;2023-02-22T04:26:51;22.37;;;10.23;;
6205;SDS011;3136;48.788;9.772;2023-02-22T04:29:16;17.10;;;10.10;;
6205;SDS011;3136;48.788;9.772;2023-02-22T04:31:42;17.63;;;9.37;;
6205;SDS011;3136;48.788;9.772;2023-02-22T04:34:08;19.43;;;10.40;;
6205;SDS011;3136;48.788;9.772;2023-02-22T04:36:33;17.23;;;9.73;;
6205;SDS011;3136;48.788;9.772;2023-02-22T04:38:59;15.97;;;9.90;;
6205;SDS011;3136;48.788;9.772;2023-02-22T04:41:25;18.00;;;10.40;;
6205;SDS011;3136;48.788;9.772;2023-02-22T04:43:51;14.20;;;9.37;;
6205;SDS011;3136;48.788;9.772;2023-02-22T04:46:16;15.70;;;8.83;;
6205;SDS011;3136;48.788;9.772;2023-02-22T04:48:42;20.40;;;10.03;;
6205;SDS011;3136;48.788;9.772;2023-02-22T04:51:08;16.87;;;9.47;;
6205;SDS011;3136;48.788;9.772;2023-02-22T04:53:34;21.57;;;10.07;;
6205;SDS011;3136;48.788;9.772;2023-02-22T04:56:00;16.33;;;10.13;;
6205;SDS011;3136;48.788;9.772;2023-02-22T04:58:26;16.50;;;9.73;;
6205;SDS011;3136;48.788;9.772;2023-02-22T05:00:51;15.13;;;10.00;;
6205;SDS011;3136;48.788;9.772;2023-02-22T05:03:17;19.67;;;10.50;;
6205;SDS011;3136;48.788;9.772;2023-02-22T05:05:42;17.30;;;9.83;;
6205;SDS011;3136;48.788;9.772;2023-02-22T05:08:08;18.30;;;10.30;;
6205;SDS011;3136;48.788;9.772;2023-02-22T05:10:34;16.43;;;9.93;;
6205;SDS011;3136;48.788;9.772;2023-02-22T05:12:59;17.23;;;9.37;;
6205;SDS011;3136;48.788;9.772;2023-02-22T05:15:25;15.87;;;9.70;;
6205;SDS011;3136;48.788;9.772;2023-02-22T05:17:51;19.97;;;9.70;;
6205;SDS011;3136;48.788;9.772;2023-02-22T05:20:31;15.00;;;9.77;;
6205;SDS011;3136;48.788;9.772;2023-02-22T05:22:58;16.73;;;9.77;;
6205;SDS011;3136;48.788;9.772;2023-02-22T05:25:25;16.90;;;10.40;;
6205;SDS011;3136;48.788;9.772;2023-02-22T05:27:55;16.97;;;9.80;;
6205;SDS011;3136;48.788;9.772;2023-02-22T05:30:24;19.30;;;9.33;;
6205;SDS011;3136;48.788;9.772;2023-02-22T05:32:52;15.10;;;9.53;;
6205;SDS011;3136;48.788;9.772;2023-02-22T05:35:18;13.27;;;9.17;;
6205;SDS011;3136;48.788;9.772;2023-02-22T05:37:45;18.77;;;9.93;;
6205;SDS011;3136;48.788;9.772;2023-02-22T05:40:11;14.73;;;8.83;;
6205;SDS011;3136;48.788;9.772;2023-02-22T05:42:38;14.80;;;9.20;;
6205;SDS011;3136;48.788;9.772;2023-02-22T05:45:06;13.40;;;8.77;;
6205;SDS011;3136;48.788;9.772;2023-02-22T05:47:33;17.47;;;9.93;;
6205;SDS011;3136;48.788;9.772;2023-02-22T05:49:58;16.90;;;10.10;;
6205;SDS011;3136;48.788;9.772;2023-02-22T05:52:25;17.63;;;9.53;;
6205;SDS011;3136;48.788;9.772;2023-02-22T05:54:51;14.67;;;8.97;;
6205;SDS011;3136;48.788;9.772;2023-02-22T05:57:17;16.47;;;10.30;;
6205;SDS011;3136;48.788;9.772;2023-02-22T05:59:42;15.93;;;9.20;;
6205;SDS011;3136;48.788;9.772;2023-02-22T06:02:08;17.27;;;9.50;;
6205;SDS011;3136;48.788;9.772;2023-02-22T06:04:34;26.33;;;13.40;;
6205;SDS011;3136;48.788;9.772;2023-02-22T06:06:59;15.23;;;9.80;;
6205;SDS011;3136;48.788;9.772;2023-02-22T06:09:25;17.73;;;9.73;;
6205;SDS011;3136;48.788;9.772;2023-02-22T06:11:50;13.90;;;8.77;;
6205;SDS011;3136;48.788;9.772;2023-02-22T06:14:16;18.80;;;8.73;;
6205;SDS011;3136;48.788;9.772;2023-02-22T06:16:41;14.03;;;8.60;;
6205;SDS011;3136;48.788;9.772;2023-02-22T06:19:07;14.33;;;9.23;;
6205;SDS011;3136;48.788;9.772;2023-02-22T06:21:33;21.97;;;11.50;;
6205;SDS011;3136;48.788;9.772;2023-02-22T06:23:58;18.17;;;9.03;;
6205;SDS011;3136;48.788;9.772;2023-02-22T06:26:28;16.13;;;8.90;;
6205;SDS011;3136;48.788;9.772;2023-02-22T06:28:53;13.03;;;8.37;;
6205;SDS011;3136;48.788;9.772;2023-02-22T06:31:19;15.50;;;8.20;;
6205;SDS011;3136;48.788;9.772;2023-02-22T06:33:44;16.73;;;8.97;;
6205;SDS011;3136;48.788;9.772;2023-02-22T06:36:10;13.47;;;8.83;;
6205;SDS011;3136;48.788;9.772;2023-02-22T06:38:35;15.97;;;9.17;;
6205;SDS011;3136;48.788;9.772;2023-02-22T06:41:01;13.83;;;8.20;;
6205;SDS011;3136;48.788;9.772;2023-02-22T06:43:27;14.87;;;9.27;;
6205;SDS011;3136;48.788;9.772;2023-02-22T06:45:52;17.57;;;10.90;;
6205;SDS011;3136;48.788;9.772;2023-02-22T06:48:18;18.20;;;11.07;;
6205;SDS011;3136;48.788;9.772;2023-02-22T06:50:43;17.93;;;9.90;;
6205;SDS011;3136;48.788;9.772;2023-02-22T06:53:09;16.20;;;9.20;;
6205;SDS011;3136;48.788;9.772;2023-02-22T06:55:34;17.67;;;8.83;;
6205;SDS011;3136;48.788;9.772;2023-02-22T06:58:00;14.00;;;8.67;;
6205;SDS011;3136;48.788;9.772;2023-02-22T07:00:29;16.90;;;9.07;;
6205;SDS011;3136;48.788;9.772;2023-02-22T07:02:56;14.23;;;8.80;;
6205;SDS011;3136;48.788;9.772;2023-02-22T07:05:23;14.10;;;8.77;;
6205;SDS011;3136;48.788;9.772;2023-02-22T07:07:50;13.43;;;9.03;;
6205;SDS011;3136;48.788;9.772;2023-02-22T07:10:21;14.27;;;8.83;;
6205;SDS011;3136;48.788;9.772;2023-02-22T07:12:52;17.70;;;10.50;;
6205;SDS011;3136;48.788;9.772;2023-02-22T07:15:19;16.53;;;9.83;;
6205;SDS011;3136;48.788;9.772;2023-02-22T07:17:47;14.37;;;9.73;;
6205;SDS011;3136;48.788;9.772;2023-02-22T07:20:13;17.40;;;10.60;;
6205;SDS011;3136;48.788;9.772;2023-02-22T07:22:39;19.53;;;12.40;;
6205;SDS011;3136;48.788;9.772;2023-02-22T07:25:05;22.00;;;14.17;;
6205;SDS011;3136;48.788;9.772;2023-02-22T07:27:34;27.03;;;12.70;;
6205;SDS011;3136;48.788;9.772;2023-02-22T07:30:00;17.17;;;11.40;;
6205;SDS011;3136;48.788;9.772;2023-02-22T07:32:26;17.30;;;9.30;;
6205;SDS011;3136;48.788;9.772;2023-02-22T07:34:51;13.70;;;9.17;;
6205;SDS011;3136;48.788;9.772;2023-02-22T07:37:17;16.90;;;9.70;;
6205;SDS011;3136;48.788;9.772;2023-02-22T07:39:42;13.87;;;8.83;;
6205;SDS011;3136;48.788;9.772;2023-02-22T07:42:08;17.00;;;8.40;;
6205;SDS011;3136;48.788;9.772;2023-02-22T07:44:34;12.50;;;8.30;;
6205;SDS011;3136;48.788;9.772;2023-02-22T07:46:59;17.17;;;8.90;;
6205;SDS011;3136;48.788;9.772;2023-02-22T07:49:26;12.33;;;8.07;;
6205;SDS011;3136;48.788;9.772;2023-02-22T07:51:52;15.40;;;8.30;;
6205;SDS011;3136;48.788;9.772;2023-02-22T07:54:17;16.23;;;8.47;;
6205;SDS011;3136;48.788;9.772;2023-02-22T07:56:46;20.27;;;9.27;;
6205;SDS011;3136;48.788;9.772;2023-02-22T07:59:12;15.03;;;9.50;;
6205;SDS011;3136;48.788;9.772;2023-02-22T08:01:39;18.87;;;9.50;;
6205;SDS011;3136;48.788;9.772;2023-02-22T08:04:05;16.70;;;9.37;;
6205;SDS011;3136;48.788;9.772;2023-02-22T08:06:31;25.80;;;11.17;;
6205;SDS011;3136;48.788;9.772;2023-02-22T08:08:56;21.83;;;10.07;;
6205;SDS011;3136;48.788;9.772;2023-02-22T08:11:22;22.43;;;9.67;;
6205;SDS011;3136;48.788;9.772;2023-02-22T08:13:48;17.30;;;9.70;;
6205;SDS011;3136;48.788;9.772;2023-02-22T08:16:14;22.10;;;9.27;;
6205;SDS011;3136;48.788;9.772;2023-02-22T08:18:40;13.20;;;8.70;;
6205;SDS011;3136;48.788;9.772;2023-02-22T08:21:05;16.83;;;8.67;;
6205;SDS011;3136;48.788;9.772;2023-02-22T08:23:31;16.30;;;8.97;;
6205;SDS011;3136;48.788;9.772;2023-02-22T08:26:02;15.13;;;8.93;;
6205;SDS011;3136;48.788;9.772;2023-02-22T08:28:32;12.67;;;8.67;;
6205;SDS011;3136;48.788;9.772;2023-02-22T08:30:58;12.60;;;7.90;;
6205;SDS011;3136;48.788;9.772;2023-02-22T08:33:23;13.40;;;7.20;;
6205;SDS011;3136;48.788;9.772;2023-02-22T08:35:49;12.30;;;7.83;;
6205;SDS011;3136;48.788;9.772;2023-02-22T08:38:20;12.30;;;7.57;;
6205;SDS011;3136;48.788;9.772;2023-02-22T08:40:50;12.47;;;8.13;;
6205;SDS011;3136;48.788;9.772;2023-02-22T08:43:17;10.97;;;7.07;;
6205;SDS011;3136;48.788;9.772;2023-02-22T08:45:44;12.27;;;7.30;;
6205;SDS011;3136;48.788;9.772;2023-02-22T08:48:10;11.83;;;7.27;;
6205;SDS011;3136;48.788;9.772;2023-02-22T08:50:38;17.70;;;7.43;;
6205;SDS011;3136;48.788;9.772;2023-02-22T08:53:05;12.47;;;6.80;;
6205;SDS011;3136;48.788;9.772;2023-02-22T08:55:32;15.57;;;9.47;;
6205;SDS011;3136;48.788;9.772;2023-02-22T08:57:59;13.33;;;8.10;;
6205;SDS011;3136;48.788;9.772;2023-02-22T09:00:27;10.57;;;7.33;;
6205;SDS011;3136;48.788;9.772;2023-02-22T09:02:57;18.40;;;7.57;;
6205;SDS011;3136;48.788;9.772;2023-02-22T09:05:26;11.37;;;6.60;;
6205;SDS011;3136;48.788;9.772;2023-02-22T09:07:51;11.80;;;7.13;;
6205;SDS011;3136;48.788;9.772;2023-02-22T09:10:19;12.20;;;6.90;;
6205;SDS011;3136;48.788;9.772;2023-02-22T09:12:49;11.47;;;7.77;;
6205;SDS011;3136;48.788;9.772;2023-02-22T09:15:16;14.17;;;7.00;;
6205;SDS011;3136;48.788;9.772;2023-02-22T09:17:41;14.40;;;7.37;;
6205;SDS011;3136;48.788;9.772;2023-02-22T09:20:07;12.03;;;6.47;;
6205;SDS011;3136;48.788;9.772;2023-02-22T09:22:35;15.47;;;7.07;;
6205;SDS011;3136;48.788;9.772;2023-02-22T09:25:01;13.57;;;7.20;;
6205;SDS011;3136;48.788;9.772;2023-02-22T09:27:27;11.70;;;6.83;;
6205;SDS011;3136;48.788;9.772;2023-02-22T09:29:53;16.53;;;7.10;;
6205;SDS011;3136;48.788;9.772;2023-02-22T09:32:20;11.83;;;6.90;;
6205;SDS011;3136;48.788;9.772;2023-02-22T09:34:46;10.87;;;6.40;;
6205;SDS011;3136;48.788;9.772;2023-02-22T09:37:12;11.67;;;6.53;;
6205;SDS011;3136;48.788;9.772;2023-02-22T09:39:38;13.40;;;6.90;;
6205;SDS011;3136;48.788;9.772;2023-02-22T09:42:20;11.47;;;6.37;;
6205;SDS011;3136;48.788;9.772;2023-02-22T09:47:40;7.83;;;5.03;;
6205;SDS011;3136;48.788;9.772;2023-02-22T09:50:11;11.17;;;5.27;;
6205;SDS011;3136;48.788;9.772;2023-02-22T09:52:56;9.20;;;4.80;;
6205;SDS011;3136;48.788;9.772;2023-02-22T09:55:35;5.60;;;4.33;;
6205;SDS011;3136;48.788;9.772;2023-02-22T09:58:09;6.67;;;4.97;;
6205;SDS011;3136;48.788;9.772;2023-02-22T10:00:36;8.40;;;4.63;;
6205;SDS011;3136;48.788;9.772;2023-02-22T10:05:51;6.00;;;4.50;;
6205;SDS011;3136;48.788;9.772;2023-02-22T10:08:23;14.07;;;4.50;;
6205;SDS011;3136;48.788;9.772;2023-02-22T10:10:56;6.90;;;4.30;;
6205;SDS011;3136;48.788;9.772;2023-02-22T10:13:32;6.80;;;4.53;;
6205;SDS011;3136;48.788;9.772;2023-02-22T10:16:11;12.17;;;4.53;;
6205;SDS011;3136;48.788;9.772;2023-02-22T10:26:33;7.00;;;4.87;;
6205;SDS011;3136;48.788;9.772;2023-02-22T10:31:32;5.90;;;4.37;;
6205;SDS011;3136;48.788;9.772;2023-02-22T10:34:42;6.83;;;4.80;;
6205;SDS011;3136;48.788;9.772;2023-02-22T10:36:53;6.03;;;4.23;;
6205;SDS011;3136;48.788;9.772;2023-02-22T10:41:55;7.77;;;4.93;;
6205;SDS011;3136;48.788;9.772;2023-02-22T10:44:30;8.10;;;4.47;;
6205;SDS011;3136;48.788;9.772;2023-02-22T10:46:59;6.57;;;4.47;;
6205;SDS011;3136;48.788;9.772;2023-02-22T10:49:29;6.83;;;4.77;;
6205;SDS011;3136;48.788;9.772;2023-02-22T10:52:03;7.17;;;5.00;;
6205;SDS011;3136;48.788;9.772;2023-02-22T10:54:37;6.10;;;4.70;;
6205;SDS011;3136;48.788;9.772;2023-02-22T10:57:06;8.37;;;5.00;;
6205;SDS011;3136;48.788;9.772;2023-02-22T10:59:33;8.97;;;5.37;;
6205;SDS011;3136;48.788;9.772;2023-02-22T11:02:16;7.07;;;4.70;;
6205;SDS011;3136;48.788;9.772;2023-02-22T11:04:47;6.90;;;4.90;;
6205;SDS011;3136;48.788;9.772;2023-02-22T11:07:22;7.30;;;4.40;;
6205;SDS011;3136;48.788;9.772;2023-02-22T11:09:54;6.80;;;4.67;;
6205;SDS011;3136;48.788;9.772;2023-02-22T11:12:24;6.40;;;4.50;;
6205;SDS011;3136;48.788;9.772;2023-02-22T11:14:52;5.13;;;4.50;;
6205;SDS011;3136;48.788;9.772;2023-02-22T11:17:22;6.13;;;4.53;;
6205;SDS011;3136;48.788;9.772;2023-02-22T11:19:55;8.47;;;5.30;;
6205;SDS011;3136;48.788;9.772;2023-02-22T11:22:23;11.77;;;5.33;;
6205;SDS011;3136;48.788;9.772;2023-02-22T11:24:56;7.63;;;5.03;;
6205;SDS011;3136;48.788;9.772;2023-02-22T11:27:35;8.07;;;5.07;;
6205;SDS011;3136;48.788;9.772;2023-02-22T11:30:09;8.47;;;4.80;;
6205;SDS011;3136;48.788;9.772;2023-02-22T11:32:36;5.50;;;4.67;;
6205;SDS011;3136;48.788;9.772;2023-02-22T11:37:53;6.50;;;4.78;;
6205;SDS011;3136;48.788;9.772;2023-02-22T11:40:34;21.33;;;5.63;;
6205;SDS011;3136;48.788;9.772;2023-02-22T11:43:12;12.43;;;4.83;;
6205;SDS011;3136;48.788;9.772;2023-02-22T11:45:54;6.67;;;4.43;;
6205;SDS011;3136;48.788;9.772;2023-02-22T11:48:33;6.80;;;4.33;;
6205;SDS011;3136;48.788;9.772;2023-02-22T11:51:16;6.27;;;4.30;;
6205;SDS011;3136;48.788;9.772;2023-02-22T11:56:52;6.27;;;4.23;;
6205;SDS011;3136;48.788;9.772;2023-02-22T11:59:50;7.07;;;4.37;;
6205;SDS011;3136;48.788;9.772;2023-02-22T12:05:18;4.60;;;4.07;;
6205;SDS011;3136;48.788;9.772;2023-02-22T12:08:05;5.50;;;4.17;;
6205;SDS011;3136;48.788;9.772;2023-02-22T12:19:04;5.43;;;3.67;;
6205;SDS011;3136;48.788;9.772;2023-02-22T12:21:39;7.70;;;3.60;;
6205;SDS011;3136;48.788;9.772;2023-02-22T12:24:09;7.43;;;3.30;;
6205;SDS011;3136;48.788;9.772;2023-02-22T12:26:49;9.23;;;3.93;;
6205;SDS011;3136;48.788;9.772;2023-02-22T12:34:37;7.07;;;4.17;;
6205;SDS011;3136;48.788;9.772;2023-02-22T12:39:52;6.63;;;3.90;;
6205;SDS011;3136;48.788;9.772;2023-02-22T12:45:33;5.10;;;3.73;;
6205;SDS011;3136;48.788;9.772;2023-02-22T12:50:51;7.13;;;4.00;;
6205;SDS011;3136;48.788;9.772;2023-02-22T12:53:39;5.13;;;3.55;;
6205;SDS011;3136;48.788;9.772;2023-02-22T12:56:21;5.00;;;3.80;;
6205;SDS011;3136;48.788;9.772;2023-02-22T12:59:10;4.83;;;3.63;;
6205;SDS011;3136;48.788;9.772;2023-02-22T13:01:57;20.93;;;4.60;;
6205;SDS011;3136;48.788;9.772;2023-02-22T13:04:33;5.10;;;3.47;;
6205;SDS011;3136;48.788;9.772;2023-02-22T13:15:17;5.17;;;3.93;;
6205;SDS011;3136;48.788;9.772;2023-02-22T13:18:13;11.80;;;3.77;;
6205;SDS011;3136;48.788;9.772;2023-02-22T13:20:58;8.30;;;3.50;;
6205;SDS011;3136;48.788;9.772;2023-02-22T13:26:22;9.63;;;3.50;;
6205;SDS011;3136;48.788;9.772;2023-02-22T13:28:56;5.57;;;3.10;;
6205;SDS011;3136;48.788;9.772;2023-02-22T13:43:09;4.60;;;3.40;;
6205;SDS011;3136;48.788;9.772;2023-02-22T13:46:08;5.70;;;3.10;;
6205;SDS011;3136;48.788;9.772;2023-02-22T13:51:45;5.93;;;3.33;;
6205;SDS011;3136;48.788;9.772;2023-02-22T13:54:24;4.90;;;3.60;;
6205;SDS011;3136;48.788;9.772;2023-02-22T13:57:02;5.33;;;3.00;;
6205;SDS011;3136;48.788;9.772;2023-02-22T13:59:41;5.80;;;3.53;;
6205;SDS011;3136;48.788;9.772;2023-02-22T14:02:14;14.90;;;3.87;;
6205;SDS011;3136;48.788;9.772;2023-02-22T14:08:06;6.23;;;3.33;;
6205;SDS011;3136;48.788;9.772;2023-02-22T14:10:53;7.73;;;3.73;;
6205;SDS011;3136;48.788;9.772;2023-02-22T14:13:24;6.80;;;3.67;;
6205;SDS011;3136;48.788;9.772;2023-02-22T14:18:26;6.33;;;4.47;;
6205;SDS011;3136;48.788;9.772;2023-02-22T14:21:03;22.67;;;4.40;;
6205;SDS011;3136;48.788;9.772;2023-02-22T14:26:13;6.10;;;4.23;;
6205;SDS011;3136;48.788;9.772;2023-02-22T14:28:58;6.47;;;4.40;;
6205;SDS011;3136;48.788;9.772;2023-02-22T14:34:13;6.47;;;4.53;;
6205;SDS011;3136;48.788;9.772;2023-02-22T14:36:51;7.20;;;4.00;;
6205;SDS011;3136;48.788;9.772;2023-02-22T14:42:05;7.63;;;4.57;;
6205;SDS011;3136;48.788;9.772;2023-02-22T14:44:39;22.23;;;4.83;;
6205;SDS011;3136;48.788;9.772;2023-02-22T14:47:14;6.53;;;4.50;;
6205;SDS011;3136;48.788;9.772;2023-02-22T14:49:45;7.17;;;4.50;;
6205;SDS011;3136;48.788;9.772;2023-02-22T14:52:19;6.50;;;4.07;;
6205;SDS011;3136;48.788;9.772;2023-02-22T14:55:01;7.13;;;4.50;;
6205;SDS011;3136;48.788;9.772;2023-02-22T15:00:45;8.63;;;4.27;;
6205;SDS011;3136;48.788;9.772;2023-02-22T15:03:23;7.80;;;4.70;;
6205;SDS011;3136;48.788;9.772;2023-02-22T15:05:56;7.47;;;4.73;;
6205;SDS011;3136;48.788;9.772;2023-02-22T15:08:28;10.27;;;5.10;;
6205;SDS011;3136;48.788;9.772;2023-02-22T15:10:56;8.07;;;4.70;;
6205;SDS011;3136;48.788;9.772;2023-02-22T15:13:23;9.03;;;4.67;;
6205;SDS011;3136;48.788;9.772;2023-02-22T15:15:57;6.03;;;3.93;;
6205;SDS011;3136;48.788;9.772;2023-02-22T15:18:26;9.40;;;4.30;;
6205;SDS011;3136;48.788;9.772;2023-02-22T15:21:19;11.23;;;5.67;;
6205;SDS011;3136;48.788;9.772;2023-02-22T15:26:20;8.17;;;5.53;;
6205;SDS011;3136;48.788;9.772;2023-02-22T15:28:51;11.20;;;4.30;;
6205;SDS011;3136;48.788;9.772;2023-02-22T15:31:22;9.83;;;4.60;;
6205;SDS011;3136;48.788;9.772;2023-02-22T15:33:51;6.10;;;4.10;;
6205;SDS011;3136;48.788;9.772;2023-02-22T15:36:19;8.60;;;3.90;;
6205;SDS011;3136;48.788;9.772;2023-02-22T15:38:49;6.53;;;4.07;;
6205;SDS011;3136;48.788;9.772;2023-02-22T15:41:20;9.23;;;4.18;;
6205;SDS011;3136;48.788;9.772;2023-02-22T15:44:05;8.63;;;4.27;;
6205;SDS011;3136;48.788;9.772;2023-02-22T15:46:32;7.57;;;3.57;;
6205;SDS011;3136;48.788;9.772;2023-02-22T15:51:40;8.20;;;3.60;;
6205;SDS011;3136;48.788;9.772;2023-02-22T15:54:10;8.10;;;3.93;;
6205;SDS011;3136;48.788;9.772;2023-02-22T15:56:39;6.60;;;4.10;;
6205;SDS011;3136;48.788;9.772;2023-02-22T15:59:16;6.80;;;3.60;;
6205;SDS011;3136;48.788;9.772;2023-02-22T16:01:45;10.80;;;3.60;;
6205;SDS011;3136;48.788;9.772;2023-02-22T16:04:16;8.90;;;3.37;;
6205;SDS011;3136;48.788;9.772;2023-02-22T16:06:44;15.87;;;4.37;;
6205;SDS011;3136;48.788;9.772;2023-02-22T16:09:15;7.37;;;2.90;;
6205;SDS011;3136;48.788;9.772;2023-02-22T16:11:47;7.53;;;2.77;;
6205;SDS011;3136;48.788;9.772;2023-02-22T16:17:43;8.10;;;2.77;;
6205;SDS011;3136;48.788;9.772;2023-02-22T16:22:36;9.07;;;3.00;;
6205;SDS011;3136;48.788;9.772;2023-02-22T16:28:02;12.13;;;6.93;;
6205;SDS011;3136;48.788;9.772;2023-02-22T16:30:55;5.37;;;3.20;;
6205;SDS011;3136;48.788;9.772;2023-02-22T16:33:21;7.90;;;4.00;;
6205;SDS011;3136;48.788;9.772;2023-02-22T16:35:47;5.13;;;3.30;;
6205;SDS011;3136;48.788;9.772;2023-02-22T16:38:16;5.27;;;3.87;;
6205;SDS011;3136;48.788;9.772;2023-02-22T16:40:46;5.53;;;2.60;;
6205;SDS011;3136;48.788;9.772;2023-02-22T16:43:19;4.93;;;2.50;;
6205;SDS011;3136;48.788;9.772;2023-02-22T16:45:47;4.77;;;2.90;;
6205;SDS011;3136;48.788;9.772;2023-02-22T16:50:44;6.30;;;4.17;;
6205;SDS011;3136;48.788;9.772;2023-02-22T16:53:10;6.97;;;3.20;;
6205;SDS011;3136;48.788;9.772;2023-02-22T16:55:36;7.33;;;2.97;;
6205;SDS011;3136;48.788;9.772;2023-02-22T16:58:02;4.23;;;2.60;;
6205;SDS011;3136;48.788;9.772;2023-02-22T17:00:28;7.00;;;2.90;;
6205;SDS011;3136;48.788;9.772;2023-02-22T17:03:02;4.93;;;2.07;;
6205;SDS011;3136;48.788;9.772;2023-02-22T17:05:31;4.20;;;2.30;;
6205;SDS011;3136;48.788;9.772;2023-02-22T17:08:01;3.93;;;2.37;;
6205;SDS011;3136;48.788;9.772;2023-02-22T17:10:27;4.43;;;3.00;;
6205;SDS011;3136;48.788;9.772;2023-02-22T17:12:53;5.43;;;2.80;;
6205;SDS011;3136;48.788;9.772;2023-02-22T17:15:21;4.93;;;2.30;;
6205;SDS011;3136;48.788;9.772;2023-02-22T17:17:49;5.33;;;2.60;;
6205;SDS011;3136;48.788;9.772;2023-02-22T17:20:16;4.83;;;2.00;;
6205;SDS011;3136;48.788;9.772;2023-02-22T17:22:53;6.03;;;3.20;;
6205;SDS011;3136;48.788;9.772;2023-02-22T17:25:21;6.50;;;3.33;;
6205;SDS011;3136;48.788;9.772;2023-02-22T17:27:49;4.80;;;3.10;;
6205;SDS011;3136;48.788;9.772;2023-02-22T17:30:15;7.97;;;3.07;;
6205;SDS011;3136;48.788;9.772;2023-02-22T17:32:42;5.10;;;2.90;;
6205;SDS011;3136;48.788;9.772;2023-02-22T17:35:08;5.03;;;2.77;;
6205;SDS011;3136;48.788;9.772;2023-02-22T17:37:33;5.00;;;2.63;;
6205;SDS011;3136;48.788;9.772;2023-02-22T17:39:59;4.93;;;2.70;;
6205;SDS011;3136;48.788;9.772;2023-02-22T17:42:24;6.27;;;3.30;;
6205;SDS011;3136;48.788;9.772;2023-02-22T17:44:50;7.47;;;4.10;;
6205;SDS011;3136;48.788;9.772;2023-02-22T17:47:15;9.13;;;3.57;;
6205;SDS011;3136;48.788;9.772;2023-02-22T17:49:41;8.37;;;2.80;;
6205;SDS011;3136;48.788;9.772;2023-02-22T17:52:08;5.30;;;2.83;;